createdAt,value
2018-06-04T00:02:21.461Z,39.87
2018-06-04T00:04:49.686Z,39.30
2018-06-04T00:07:17.934Z,37.83
2018-06-04T00:09:46.153Z,38.10
2018-06-04T00:12:14.414Z,38.77
2018-06-04T00:14:42.656Z,38.80
2018-06-04T00:17:10.932Z,42.70
2018-06-04T00:19:39.173Z,43.17
2018-06-04T00:22:07.409Z,44.20
2018-06-04T00:24:35.635Z,45.83
2018-06-04T00:27:03.880Z,44.43
2018-06-04T00:29:32.176Z,47.67
2018-06-04T00:32:00.419Z,43.23
2018-06-04T00:34:28.664Z,48.80
2018-06-04T00:36:56.895Z,44.13
2018-06-04T00:39:25.147Z,53.03
2018-06-04T00:41:53.410Z,55.77
2018-06-04T00:44:21.666Z,59.50
2018-06-04T00:46:49.914Z,60.73
2018-06-04T00:49:18.114Z,50.07
2018-06-04T00:51:46.361Z,46.13
2018-06-04T00:54:14.606Z,41.80
2018-06-04T00:56:42.832Z,40.47
2018-06-04T00:59:11.055Z,39.30
2018-06-04T01:01:39.294Z,36.53
2018-06-04T01:04:07.554Z,37.83
2018-06-04T01:06:35.831Z,33.93
2018-06-04T01:09:05.777Z,35.67
2018-06-04T01:11:34.057Z,36.33
2018-06-04T01:14:02.315Z,40.70
2018-06-04T01:16:30.571Z,37.30
2018-06-04T01:18:58.877Z,40.13
2018-06-04T01:21:27.148Z,51.60
2018-06-04T01:23:55.387Z,57.47
2018-06-04T01:26:23.618Z,50.63
2018-06-04T01:28:51.836Z,51.97
2018-06-04T01:31:20.111Z,52.83
2018-06-04T01:33:48.337Z,56.77
2018-06-04T01:36:16.584Z,52.60
2018-06-04T01:38:44.823Z,52.93
2018-06-04T01:41:13.058Z,59.37
2018-06-04T01:43:41.343Z,57.03
2018-06-04T01:46:09.593Z,47.87
2018-06-04T01:48:37.935Z,47.30
2018-06-04T01:51:06.232Z,46.23
2018-06-04T01:53:34.483Z,51.67
2018-06-04T01:56:02.755Z,44.30
2018-06-04T01:58:31.012Z,41.83
2018-06-04T02:00:59.269Z,44.13
2018-06-04T02:03:27.515Z,42.97
2018-06-04T02:05:55.751Z,39.47
2018-06-04T02:08:24.032Z,47.00
2018-06-04T02:10:52.657Z,52.73
2018-06-04T02:13:20.879Z,59.40
2018-06-04T02:15:49.134Z,76.10
2018-06-04T02:18:17.362Z,52.63
2018-06-04T02:20:45.654Z,55.20
2018-06-04T02:23:13.883Z,55.80
2018-06-04T02:25:42.143Z,55.63
2018-06-04T02:28:10.397Z,53.93
2018-06-04T02:30:38.628Z,63.23
2018-06-04T02:33:06.927Z,60.53
2018-06-04T02:35:35.181Z,57.23
2018-06-04T02:38:03.393Z,60.17
2018-06-04T02:40:31.635Z,73.33
2018-06-04T02:42:59.863Z,85.47
2018-06-04T02:45:28.156Z,78.77
2018-06-04T02:47:56.390Z,82.37
2018-06-04T02:50:24.641Z,54.33
2018-06-04T02:52:52.887Z,48.43
2018-06-04T02:55:21.115Z,45.60
2018-06-04T02:57:49.410Z,41.70
2018-06-04T03:00:17.674Z,38.03
2018-06-04T03:02:45.892Z,41.03
2018-06-04T03:05:14.185Z,38.67
2018-06-04T03:07:42.447Z,38.13
2018-06-04T03:10:10.648Z,38.57
2018-06-04T03:12:38.945Z,36.53
2018-06-04T03:15:07.190Z,35.90
2018-06-04T03:17:35.423Z,40.77
2018-06-04T03:20:03.672Z,38.57
2018-06-04T03:22:31.941Z,36.00
2018-06-04T03:25:00.230Z,43.07
2018-06-04T03:27:28.455Z,37.97
2018-06-04T03:29:56.692Z,38.00
2018-06-04T03:32:24.952Z,39.53
2018-06-04T03:34:53.203Z,38.33
2018-06-04T03:37:21.467Z,37.13
2018-06-04T03:39:49.717Z,38.33
2018-06-04T03:42:18.017Z,36.30
2018-06-04T03:44:46.287Z,38.90
2018-06-04T03:47:14.510Z,34.90
2018-06-04T03:49:42.744Z,39.90
2018-06-04T03:52:10.991Z,40.60
2018-06-04T03:54:39.286Z,42.53
2018-06-04T03:57:07.551Z,42.63
2018-06-04T03:59:35.794Z,38.03
2018-06-04T04:02:04.014Z,42.20
2018-06-04T04:04:32.239Z,41.50
2018-06-04T04:07:00.536Z,40.70
2018-06-04T04:09:28.811Z,40.30
2018-06-04T04:11:57.105Z,40.57
2018-06-04T04:14:25.360Z,40.07
2018-06-04T04:16:53.621Z,39.83
2018-06-04T04:19:21.913Z,37.93
2018-06-04T04:21:50.119Z,36.30
2018-06-04T04:24:18.394Z,36.13
2018-06-04T04:26:46.595Z,37.27
2018-06-04T04:29:14.810Z,35.77
2018-06-04T04:31:43.036Z,36.13
2018-06-04T04:34:11.275Z,35.93
2018-06-04T04:36:39.526Z,33.50
2018-06-04T04:39:08.426Z,32.30
2018-06-04T04:41:36.710Z,30.10
2018-06-04T04:44:04.986Z,30.23
2018-06-04T04:46:33.222Z,28.60
2018-06-04T04:49:01.554Z,29.60
2018-06-04T04:51:29.879Z,29.83
2018-06-04T04:53:58.148Z,30.90
2018-06-04T04:56:26.398Z,32.43
2018-06-04T04:58:54.640Z,31.10
2018-06-04T05:01:22.921Z,29.67
2018-06-04T05:03:51.168Z,31.37
2018-06-04T05:06:19.402Z,29.80
2018-06-04T05:08:47.631Z,32.40
2018-06-04T05:11:15.891Z,31.93
2018-06-04T05:13:44.130Z,29.97
2018-06-04T05:16:12.398Z,28.50
2018-06-04T05:18:40.608Z,27.00
2018-06-04T05:21:08.802Z,27.80
2018-06-04T05:23:37.046Z,27.10
2018-06-04T05:26:05.378Z,25.53
2018-06-04T05:28:33.592Z,25.00
2018-06-04T05:31:01.824Z,25.37
2018-06-04T05:33:30.015Z,23.93
2018-06-04T05:35:58.200Z,23.97
2018-06-04T05:38:26.379Z,21.37
2018-06-04T05:40:54.764Z,22.07
2018-06-04T05:43:23.011Z,20.27
2018-06-04T05:45:51.362Z,19.73
2018-06-04T05:48:19.558Z,19.83
2018-06-04T05:50:47.754Z,19.27
2018-06-04T05:53:15.986Z,19.13
2018-06-04T05:55:44.201Z,18.07
2018-06-04T05:58:12.406Z,17.70
2018-06-04T06:00:40.597Z,17.07
2018-06-04T06:03:08.901Z,16.70
2018-06-04T06:05:37.087Z,17.40
2018-06-04T06:08:05.273Z,18.87
2018-06-04T06:10:33.465Z,17.17
2018-06-04T06:13:01.702Z,17.00
2018-06-04T06:15:30.230Z,17.43
2018-06-04T06:17:58.431Z,16.13
2018-06-04T06:20:26.836Z,18.00
2018-06-04T06:22:55.067Z,18.03
2018-06-04T06:25:23.305Z,16.77
2018-06-04T06:27:51.544Z,17.27
2018-06-04T06:30:19.739Z,18.33
2018-06-04T06:32:47.990Z,17.43
2018-06-04T06:35:16.174Z,16.30
2018-06-04T06:37:44.355Z,16.40
2018-06-04T06:40:12.568Z,15.53
2018-06-04T06:42:40.742Z,17.10
2018-06-04T06:45:09.010Z,18.33
2018-06-04T06:47:37.192Z,19.40
2018-06-04T06:50:05.641Z,18.83
2018-06-04T06:52:33.817Z,18.13
2018-06-04T06:55:02.064Z,19.40
2018-06-04T06:57:30.366Z,20.47
2018-06-04T06:59:58.559Z,22.53
2018-06-04T07:02:26.747Z,22.53
2018-06-04T07:04:54.950Z,24.30
2018-06-04T07:07:23.179Z,22.47
2018-06-04T07:09:51.417Z,23.87
2018-06-04T07:12:19.590Z,24.90
2018-06-04T07:14:47.782Z,23.87
2018-06-04T07:17:16.006Z,23.27
2018-06-04T07:19:44.186Z,25.00
2018-06-04T07:22:12.406Z,23.93
2018-06-04T07:24:40.596Z,23.70
2018-06-04T07:27:08.821Z,24.57
2018-06-04T07:29:37.015Z,25.50
2018-06-04T07:32:05.253Z,26.47
2018-06-04T07:34:33.471Z,24.47
2018-06-04T07:37:01.669Z,24.10
2018-06-04T07:39:29.878Z,24.20
2018-06-04T07:41:58.096Z,24.13
2018-06-04T07:44:26.423Z,24.27
2018-06-04T07:46:55.051Z,25.07
2018-06-04T07:49:23.235Z,24.50
2018-06-04T07:51:51.438Z,23.87
2018-06-04T07:54:19.622Z,23.37
2018-06-04T07:56:47.801Z,19.30
2018-06-04T07:59:15.970Z,19.30
2018-06-04T08:01:44.205Z,18.33
2018-06-04T08:04:12.378Z,18.77
2018-06-04T08:06:40.601Z,19.53
2018-06-04T08:09:08.779Z,19.63
2018-06-04T08:11:36.978Z,18.50
2018-06-04T08:14:05.223Z,18.23
2018-06-04T08:16:33.560Z,17.17
2018-06-04T08:19:01.859Z,18.73
2018-06-04T08:21:30.816Z,18.27
2018-06-04T08:23:59.048Z,16.73
2018-06-04T08:26:27.324Z,15.73
2018-06-04T08:28:55.522Z,15.53
2018-06-04T08:31:23.761Z,15.10
2018-06-04T08:33:51.951Z,17.43
2018-06-04T08:36:20.185Z,15.40
2018-06-04T08:38:48.422Z,13.47
2018-06-04T08:41:16.701Z,12.90
2018-06-04T08:43:44.908Z,13.30
2018-06-04T08:46:13.103Z,13.20
2018-06-04T08:48:41.290Z,13.07
2018-06-04T08:51:09.498Z,12.93
2018-06-04T08:53:37.695Z,12.00
2018-06-04T08:56:05.957Z,12.60
2018-06-04T08:58:34.255Z,13.70
2018-06-04T09:01:02.487Z,13.67
2018-06-04T09:03:30.681Z,13.77
2018-06-04T09:05:58.878Z,13.63
2018-06-04T09:08:27.119Z,13.37
2018-06-04T09:10:55.333Z,13.23
2018-06-04T09:13:23.523Z,13.97
2018-06-04T09:15:51.714Z,13.50
2018-06-04T09:18:19.915Z,14.37
2018-06-04T09:20:48.135Z,13.70
2018-06-04T09:23:16.348Z,13.20
2018-06-04T09:25:44.549Z,13.77
2018-06-04T09:28:12.767Z,13.40
2018-06-04T09:30:41.013Z,13.27
2018-06-04T09:33:09.212Z,13.17
2018-06-04T09:35:37.401Z,12.73
2018-06-04T09:38:05.625Z,12.80
2018-06-04T09:40:33.831Z,13.07
2018-06-04T09:43:02.038Z,12.00
2018-06-04T09:45:30.275Z,12.33
2018-06-04T09:47:58.475Z,11.77
2018-06-04T09:50:26.761Z,11.17
2018-06-04T09:52:54.958Z,11.67
2018-06-04T09:55:23.159Z,11.50
2018-06-04T09:57:51.338Z,11.00
2018-06-04T10:00:25.066Z,10.67
2018-06-04T10:02:53.301Z,9.67
2018-06-04T10:05:21.525Z,8.90
2018-06-04T10:07:49.711Z,8.90
2018-06-04T10:10:17.905Z,8.40
2018-06-04T10:12:46.115Z,8.80
2018-06-04T10:15:14.313Z,8.03
2018-06-04T10:17:42.506Z,9.40
2018-06-04T10:20:10.710Z,9.30
2018-06-04T10:22:38.914Z,7.85
2018-06-04T10:25:07.110Z,7.50
2018-06-04T10:27:35.286Z,7.00
2018-06-04T10:30:03.631Z,7.50
2018-06-04T10:32:31.849Z,7.00
2018-06-04T10:35:00.074Z,7.47
2018-06-04T10:37:28.270Z,7.75
2018-06-04T10:39:56.527Z,7.90
2018-06-04T10:42:24.768Z,7.08
2018-06-04T10:44:52.950Z,6.75
2018-06-04T10:47:21.130Z,6.35
2018-06-04T10:49:49.311Z,7.92
2018-06-04T10:52:17.496Z,7.17
2018-06-04T10:54:45.735Z,7.25
2018-06-04T10:57:13.945Z,7.35
2018-06-04T10:59:42.118Z,6.55
2018-06-04T11:02:10.292Z,6.60
2018-06-04T11:04:38.565Z,7.30
2018-06-04T11:07:06.811Z,7.28
2018-06-04T11:09:34.987Z,7.10
2018-06-04T11:12:03.166Z,7.00
2018-06-04T11:14:31.370Z,7.95
2018-06-04T11:16:59.622Z,7.08
2018-06-04T11:19:27.968Z,6.87
2018-06-04T11:21:56.135Z,6.28
2018-06-04T11:24:24.322Z,5.95
2018-06-04T11:26:53.237Z,5.72
2018-06-04T11:29:21.426Z,5.70
2018-06-04T11:31:49.617Z,6.30
2018-06-04T11:34:17.850Z,6.22
2018-06-04T11:36:46.063Z,6.00
2018-06-04T11:39:14.278Z,7.15
2018-06-04T11:41:42.453Z,6.70
2018-06-04T11:46:37.953Z,6.05
2018-06-04T11:49:06.181Z,5.53
2018-06-04T11:51:34.373Z,5.85
2018-06-04T11:54:02.560Z,6.03
2018-06-04T11:56:31.819Z,6.03
2018-06-04T11:58:59.942Z,5.95
2018-06-04T12:01:28.121Z,5.10
2018-06-04T12:03:56.406Z,5.00
2018-06-04T12:06:24.632Z,5.17
2018-06-04T12:08:52.844Z,5.72
2018-06-04T12:11:21.429Z,5.42
2018-06-04T12:13:49.593Z,6.20
2018-06-04T12:16:17.859Z,5.60
2018-06-04T12:18:46.071Z,5.60
2018-06-04T12:21:14.262Z,5.28
2018-06-04T12:23:42.446Z,5.62
2018-06-04T12:26:10.683Z,5.10
2018-06-04T12:28:38.946Z,5.55
2018-06-04T12:31:07.749Z,4.92
2018-06-04T12:33:36.000Z,5.85
2018-06-04T12:36:05.393Z,5.40
2018-06-04T12:38:33.565Z,5.20
2018-06-04T12:41:01.770Z,5.05
2018-06-04T12:43:29.948Z,5.62
2018-06-04T12:45:58.153Z,5.70
2018-06-04T12:48:26.336Z,5.03
2018-06-04T12:50:54.630Z,5.45
2018-06-04T12:53:22.786Z,5.83
2018-06-04T12:55:50.972Z,5.12
2018-06-04T12:58:19.192Z,5.20
2018-06-04T13:00:47.409Z,4.87
2018-06-04T13:03:15.581Z,5.15
2018-06-04T13:05:43.765Z,5.03
2018-06-04T13:08:11.957Z,4.83
2018-06-04T13:10:40.142Z,4.65
2018-06-04T13:13:08.313Z,4.58
2018-06-04T13:15:36.577Z,4.85
2018-06-04T13:18:04.926Z,5.20
2018-06-04T13:20:33.112Z,4.97
2018-06-04T13:23:01.326Z,4.83
2018-06-04T13:25:29.560Z,5.60
2018-06-04T13:27:57.747Z,4.80
2018-06-04T13:30:25.945Z,4.90
2018-06-04T13:32:54.201Z,4.85
2018-06-04T13:35:22.391Z,4.80
2018-06-04T13:37:50.617Z,5.17
2018-06-04T13:40:18.833Z,5.30
2018-06-04T13:42:47.012Z,5.22
2018-06-04T13:45:15.256Z,5.00
2018-06-04T13:47:43.483Z,5.08
2018-06-04T13:50:11.709Z,5.15
2018-06-04T13:52:39.893Z,5.35
2018-06-04T13:55:08.206Z,5.03
2018-06-04T13:57:36.398Z,5.00
2018-06-04T14:00:05.094Z,5.00
2018-06-04T14:02:33.269Z,4.97
2018-06-04T14:05:01.467Z,5.50
2018-06-04T14:07:29.721Z,5.50
2018-06-04T14:09:57.949Z,5.00
2018-06-04T14:12:26.131Z,5.12
2018-06-04T14:14:54.289Z,5.37
2018-06-04T14:17:22.517Z,5.30
2018-06-04T14:19:50.706Z,4.90
2018-06-04T14:22:18.904Z,5.45
2018-06-04T14:24:47.129Z,4.90
2018-06-04T14:27:15.366Z,5.15
2018-06-04T14:29:43.621Z,4.58
2018-06-04T14:32:11.824Z,4.72
2018-06-04T14:34:46.616Z,5.00
2018-06-04T14:37:14.930Z,5.20
2018-06-04T14:39:43.135Z,4.78
2018-06-04T14:42:11.334Z,5.25
2018-06-04T14:44:39.534Z,5.08
2018-06-04T14:47:07.729Z,4.53
2018-06-04T14:49:35.938Z,4.92
2018-06-04T14:52:04.131Z,4.60
2018-06-04T14:54:32.330Z,4.65
2018-06-04T14:57:00.518Z,4.95
2018-06-04T14:59:28.748Z,4.80
2018-06-04T15:01:56.929Z,4.42
2018-06-04T15:04:25.195Z,4.97
2018-06-04T15:06:53.357Z,4.80
2018-06-04T15:09:21.561Z,4.55
2018-06-04T15:11:49.775Z,4.37
2018-06-04T15:14:18.030Z,4.50
2018-06-04T15:16:46.219Z,5.00
2018-06-04T15:19:14.429Z,4.20
2018-06-04T15:21:42.652Z,4.17
2018-06-04T15:24:10.909Z,4.12
2018-06-04T15:26:39.169Z,4.25
2018-06-04T15:29:07.360Z,4.20
2018-06-04T15:31:35.543Z,4.12
2018-06-04T15:34:03.746Z,4.60
2018-06-04T15:36:31.993Z,4.70
2018-06-04T15:39:00.183Z,4.40
2018-06-04T15:41:28.398Z,4.40
2018-06-04T15:43:56.593Z,4.35
2018-06-04T15:46:24.798Z,4.85
2018-06-04T15:48:53.081Z,4.33
2018-06-04T15:51:21.324Z,4.20
2018-06-04T15:53:49.518Z,4.10
2018-06-04T15:56:17.970Z,4.47
2018-06-04T15:58:46.166Z,4.05
2018-06-04T16:01:14.370Z,4.30
2018-06-04T16:03:42.586Z,3.95
2018-06-04T16:06:10.845Z,4.33
2018-06-04T16:08:39.039Z,3.80
2018-06-04T16:11:07.265Z,4.08
2018-06-04T16:13:35.471Z,4.00
2018-06-04T16:16:03.672Z,4.28
2018-06-04T16:18:31.885Z,3.80
2018-06-04T16:21:00.140Z,4.10
2018-06-04T16:23:28.334Z,4.90
2018-06-04T16:25:56.514Z,4.28
2018-06-04T16:28:24.716Z,3.65
2018-06-04T16:30:52.920Z,3.60
2018-06-04T16:33:21.118Z,4.17
2018-06-04T16:35:49.396Z,3.80
2018-06-04T16:38:17.588Z,3.83
2018-06-04T16:40:45.799Z,4.40
2018-06-04T16:43:13.993Z,3.93
2018-06-04T16:45:42.317Z,4.03
2018-06-04T16:48:10.509Z,4.40
2018-06-04T16:50:38.737Z,4.17
2018-06-04T16:53:06.975Z,4.13
2018-06-04T16:55:35.232Z,4.00
2018-06-04T16:58:03.449Z,3.93
2018-06-04T17:00:31.654Z,3.90
2018-06-04T17:02:59.888Z,4.60
2018-06-04T17:05:28.110Z,4.47
2018-06-04T17:07:56.368Z,4.60
2018-06-04T17:10:24.553Z,4.40
2018-06-04T17:12:52.760Z,4.20
2018-06-04T17:15:20.941Z,4.23
2018-06-04T17:17:49.145Z,4.43
2018-06-04T17:20:17.381Z,4.30
2018-06-04T17:22:45.572Z,4.30
2018-06-04T17:25:13.757Z,4.63
2018-06-04T17:27:41.955Z,5.57
2018-06-04T17:30:10.151Z,4.60
2018-06-04T17:32:38.369Z,4.80
2018-06-04T17:35:06.700Z,4.60
2018-06-04T17:37:34.882Z,4.73
2018-06-04T17:40:03.094Z,4.20
2018-06-04T17:42:31.284Z,4.50
2018-06-04T17:44:59.516Z,5.10
2018-06-04T17:47:27.774Z,4.87
2018-06-04T17:49:56.548Z,4.37
2018-06-04T17:52:24.731Z,4.33
2018-06-04T17:54:52.892Z,4.87
2018-06-04T17:57:21.526Z,4.70
2018-06-04T17:59:49.719Z,4.60
2018-06-04T18:02:17.916Z,5.30
2018-06-04T18:04:46.101Z,5.00
2018-06-04T18:07:14.297Z,4.83
2018-06-04T18:09:42.494Z,4.37
2018-06-04T18:12:10.764Z,5.30
2018-06-04T18:14:39.041Z,5.33
2018-06-04T18:17:07.221Z,4.90
2018-06-04T18:19:35.424Z,5.50
2018-06-04T18:22:03.596Z,5.00
2018-06-04T18:24:31.885Z,5.00
2018-06-04T18:27:00.074Z,5.33
2018-06-04T18:29:28.332Z,5.57
2018-06-04T18:31:56.497Z,5.97
2018-06-04T18:34:24.665Z,6.10
2018-06-04T18:36:52.845Z,5.87
2018-06-04T18:39:21.599Z,6.10
2018-06-04T18:41:49.861Z,6.40
2018-06-04T18:44:18.043Z,7.00
2018-06-04T18:46:46.213Z,7.93
2018-06-04T18:49:14.397Z,8.60
2018-06-04T18:51:42.602Z,8.43
2018-06-04T18:54:10.801Z,8.00
2018-06-04T18:56:38.992Z,8.50
2018-06-04T18:59:07.173Z,8.17
2018-06-04T19:01:35.352Z,8.17
2018-06-04T19:04:03.704Z,8.40
2018-06-04T19:06:31.950Z,7.27
2018-06-04T19:09:00.202Z,7.80
2018-06-04T19:11:28.356Z,8.90
2018-06-04T19:13:56.544Z,8.97
2018-06-04T19:16:24.742Z,10.50
2018-06-04T19:18:52.955Z,9.90
2018-06-04T19:21:21.129Z,9.07
2018-06-04T19:23:49.293Z,8.97
2018-06-04T19:26:17.489Z,9.63
2018-06-04T19:28:45.736Z,9.53
2018-06-04T19:31:13.918Z,8.90
2018-06-04T19:33:42.248Z,9.33
2018-06-04T19:36:10.540Z,9.40
2018-06-04T19:38:38.842Z,9.27
2018-06-04T19:41:07.033Z,9.40
2018-06-04T19:43:35.222Z,9.17
2018-06-04T19:46:03.426Z,10.00
2018-06-04T19:48:32.021Z,10.03
2018-06-04T19:51:00.201Z,10.13
2018-06-04T19:53:28.428Z,9.20
2018-06-04T19:55:56.649Z,11.23
2018-06-04T19:58:24.824Z,9.80
2018-06-04T20:00:53.117Z,11.00
2018-06-04T20:03:21.314Z,9.90
2018-06-04T20:05:49.529Z,10.30
2018-06-04T20:08:17.752Z,12.37
2018-06-04T20:10:45.952Z,12.50
2018-06-04T20:13:14.204Z,15.20
2018-06-04T20:15:42.457Z,15.20
2018-06-04T20:18:10.641Z,15.17
2018-06-04T20:20:38.822Z,15.97
2018-06-04T20:23:06.997Z,16.10
2018-06-04T20:25:35.223Z,15.70
2018-06-04T20:28:03.505Z,16.97
2018-06-04T20:30:31.685Z,16.90
2018-06-04T20:32:59.869Z,18.33
2018-06-04T20:35:28.050Z,19.03
2018-06-04T20:37:56.355Z,18.00
2018-06-04T20:40:24.539Z,19.07
2018-06-04T20:42:52.716Z,21.30
2018-06-04T20:45:20.885Z,19.50
2018-06-04T20:47:49.126Z,18.33
2018-06-04T20:50:17.318Z,18.47
2018-06-04T20:52:45.506Z,20.10
2018-06-04T20:55:13.721Z,18.40
2018-06-04T20:57:41.914Z,19.00
2018-06-04T21:00:10.108Z,19.23
2018-06-04T21:02:38.322Z,19.80
2018-06-04T21:05:06.568Z,18.50
2018-06-04T21:07:34.801Z,18.70
2018-06-04T21:10:02.999Z,19.07
2018-06-04T21:12:31.278Z,19.47
2018-06-04T21:14:59.518Z,18.23
2018-06-04T21:17:27.702Z,18.57
2018-06-04T21:19:55.961Z,19.40
2018-06-04T21:22:24.280Z,18.60
2018-06-04T21:24:52.519Z,17.73
2018-06-04T21:27:20.703Z,19.77
2018-06-04T21:29:48.898Z,17.70
2018-06-04T21:32:17.174Z,17.53
2018-06-04T21:34:45.490Z,18.97
2018-06-04T21:37:13.697Z,18.67
2018-06-04T21:39:41.903Z,18.70
2018-06-04T21:42:10.092Z,19.03
2018-06-04T21:44:38.418Z,19.43
2018-06-04T21:47:07.385Z,18.40
2018-06-04T21:49:35.676Z,20.77
2018-06-04T21:52:03.939Z,21.97
2018-06-04T21:54:34.660Z,21.07
2018-06-04T21:57:03.038Z,20.33
2018-06-04T21:59:31.321Z,20.40
2018-06-04T22:01:59.600Z,19.00
2018-06-04T22:04:27.844Z,19.70
2018-06-04T22:06:56.100Z,21.17
2018-06-04T22:09:24.359Z,20.90
2018-06-04T22:11:52.640Z,20.30
2018-06-04T22:14:20.904Z,20.60
2018-06-04T22:16:49.205Z,20.20
2018-06-04T22:19:17.457Z,20.90
2018-06-04T22:21:45.731Z,21.27
2018-06-04T22:24:14.009Z,21.77
2018-06-04T22:26:42.249Z,20.83
2018-06-04T22:29:10.528Z,20.53
2018-06-04T22:34:13.523Z,21.13
2018-06-04T22:36:41.911Z,21.53
2018-06-04T22:39:10.154Z,21.27
2018-06-04T22:41:38.384Z,21.60
2018-06-04T22:44:06.615Z,20.77
2018-06-04T22:46:34.871Z,20.73
2018-06-04T22:49:06.124Z,20.67
2018-06-04T22:51:34.868Z,21.73
2018-06-04T22:54:03.140Z,20.63
2018-06-04T22:56:31.379Z,21.47
2018-06-04T22:58:59.604Z,21.37
2018-06-04T23:01:27.834Z,20.90
2018-06-04T23:03:56.067Z,21.23
2018-06-04T23:06:24.352Z,19.63
2018-06-04T23:08:52.559Z,19.93
2018-06-04T23:11:20.801Z,19.70
2018-06-04T23:13:49.051Z,19.47
2018-06-04T23:16:17.313Z,19.77
2018-06-04T23:18:45.577Z,20.20
2018-06-04T23:21:13.843Z,20.03
2018-06-04T23:23:42.106Z,20.87
2018-06-04T23:26:10.358Z,20.03
2018-06-04T23:28:38.618Z,18.60
2018-06-04T23:31:06.904Z,21.43
2018-06-04T23:33:35.145Z,20.50
2018-06-04T23:36:03.402Z,21.70
2018-06-04T23:38:31.644Z,21.10
2018-06-04T23:40:59.928Z,21.17
2018-06-04T23:43:28.144Z,22.40
2018-06-04T23:45:56.366Z,23.17
2018-06-04T23:48:24.588Z,23.67
2018-06-04T23:50:52.800Z,24.77
2018-06-04T23:53:21.072Z,22.63
2018-06-04T23:55:49.277Z,21.47
2018-06-04T23:58:17.633Z,20.87
